Cape Providence — 3EWQ — position and weather

sailwx.info

Track history (hours):
 
Tides and Currents Weather Stations Pressure Air Temp Water Temp Dewpoint Dewpoint Depression Visibility Wind Speed Wind Dir Waves Ship Positions

Cape Providence

Last reported at 2016-Jan-30 07:33 UTC. Time now 2016-Feb-07 03:57 UTC.
Position N 08°12' E 109°39'.

Length 292 m; draft 17.8 m.

Type: Cargo ship. MMSI: 372773000.

Date/timePositionNaut miles runAvg speedWind from/ knotsBaromVisibWave heightAir tempDewpointWater temp
2016-Jan-30 07:33N 08°12' E 109°39'38 9.3
2016-Jan-30 03:29N 07°43' E 109°14'8 9.0
2016-Jan-30 02:33N 07°37' E 109°08'  
2016-Jan-27 19:04N 01°16' E 104°11'5 8.7
2016-Jan-27 18:30N 01°15' E 104°06'8 8.2
2016-Jan-27 17:31N 01°16' E 103°58'1 0.5
2016-Jan-27 15:31N 01°16' E 103°58'0 0.0
2016-Jan-27 14:31N 01°16' E 103°58'0 0.1
2016-Jan-27 12:22N 01°16' E 103°58'0 0.1
2016-Jan-27 11:22N 01°16' E 103°58'0 0.0
2016-Jan-27 10:25N 01°16' E 103°58'0 0.0
2016-Jan-27 09:16N 01°16' E 103°58'0 0.1
2016-Jan-27 08:28N 01°16' E 103°58'0 0.2
2016-Jan-27 07:22N 01°16' E 103°58'0 0.1
2016-Jan-27 06:25N 01°16' E 103°58'0 0.1
2016-Jan-27 05:28N 01°16' E 103°58'0 0.0
2016-Jan-27 04:28N 01°16' E 103°58'0 0.1
2016-Jan-27 03:33N 01°16' E 103°58'5 5.4
2016-Jan-27 02:33N 01°13' E 103°54'8 8.3
2016-Jan-27 01:33N 01°09' E 103°46'73 8.7
2016-Jan-26 17:12N 01°41' E 102°41'711.2
2016-Jan-26 16:33N 01°44' E 102°34'1111.3
2016-Jan-26 15:33N 01°49' E 102°24'242 9.6
2016-Jan-25 14:25N 04°22' E 099°17'  
Track history (hours):
 
Tides and Currents Weather Stations Pressure Air Temp Water Temp Dewpoint Dewpoint Depression Visibility Wind Speed Wind Dir Waves Ship Positions

Cape Providence

Last reported at 2016-Jan-30 07:33 UTC. Time now 2016-Feb-07 03:57 UTC.
Position N 08°12' E 109°39'.

Length 292 m; draft 17.8 m.

Type: Cargo ship. MMSI: 372773000.

Date/timePositionNaut miles runAvg speedWind from/ knotsBaromVisibWave heightAir tempDewpointWater temp
2016-Jan-30 07:33N 08°12' E 109°39'38 9.3
2016-Jan-30 03:29N 07°43' E 109°14'8 9.0
2016-Jan-30 02:33N 07°37' E 109°08'  
2016-Jan-27 19:04N 01°16' E 104°11'5 8.7
2016-Jan-27 18:30N 01°15' E 104°06'8 8.2
2016-Jan-27 17:31N 01°16' E 103°58'1 0.5
2016-Jan-27 15:31N 01°16' E 103°58'0 0.0
2016-Jan-27 14:31N 01°16' E 103°58'0 0.1
2016-Jan-27 12:22N 01°16' E 103°58'0 0.1
2016-Jan-27 11:22N 01°16' E 103°58'0 0.0
2016-Jan-27 10:25N 01°16' E 103°58'0 0.0
2016-Jan-27 09:16N 01°16' E 103°58'0 0.1
2016-Jan-27 08:28N 01°16' E 103°58'0 0.2
2016-Jan-27 07:22N 01°16' E 103°58'0 0.1
2016-Jan-27 06:25N 01°16' E 103°58'0 0.1
2016-Jan-27 05:28N 01°16' E 103°58'0 0.0
2016-Jan-27 04:28N 01°16' E 103°58'0 0.1
2016-Jan-27 03:33N 01°16' E 103°58'5 5.4
2016-Jan-27 02:33N 01°13' E 103°54'8 8.3
2016-Jan-27 01:33N 01°09' E 103°46'73 8.7
2016-Jan-26 17:12N 01°41' E 102°41'711.2
2016-Jan-26 16:33N 01°44' E 102°34'1111.3
2016-Jan-26 15:33N 01°49' E 102°24'242 9.6
2016-Jan-25 14:25N 04°22' E 099°17'  

Dump ship's entire track history